createdAt,value
2023-04-27T00:00:46.310Z,97655.00
2023-04-27T00:03:14.676Z,97653.00
2023-04-27T00:05:44.503Z,97651.00
2023-04-27T00:08:12.737Z,97637.00
2023-04-27T00:10:40.970Z,97661.00
2023-04-27T00:13:09.071Z,97658.00
2023-04-27T00:15:37.255Z,97646.00
2023-04-27T00:18:05.648Z,97649.00
2023-04-27T00:20:33.877Z,97647.00
2023-04-27T00:23:03.398Z,97643.00
2023-04-27T00:25:31.592Z,97647.00
2023-04-27T00:27:59.772Z,97649.00
2023-04-27T00:30:30.124Z,97648.00
2023-04-27T00:32:58.388Z,97655.00
2023-04-27T00:35:26.604Z,97639.00
2023-04-27T00:37:55.720Z,97637.00
2023-04-27T00:40:25.227Z,97645.00
2023-04-27T00:42:54.186Z,97628.00
2023-04-27T00:45:22.667Z,97627.00
2023-04-27T00:47:53.884Z,97632.00
2023-04-27T00:50:30.155Z,97633.00
2023-04-27T00:52:59.154Z,97621.00
2023-04-27T00:55:28.629Z,97628.00
2023-04-27T00:57:56.853Z,97626.00
2023-04-27T01:00:25.663Z,97631.00
2023-04-27T01:02:56.583Z,97631.00
2023-04-27T01:05:27.133Z,97634.00
2023-04-27T01:07:56.305Z,97632.00
2023-04-27T01:10:24.694Z,97627.00
2023-04-27T01:12:54.283Z,97637.00
2023-04-27T01:15:22.572Z,97635.00
2023-04-27T01:17:50.737Z,97620.00
2023-04-27T01:20:20.271Z,97629.00
2023-04-27T01:22:48.488Z,97615.00
2023-04-27T01:25:20.092Z,97627.00
2023-04-27T01:27:48.276Z,97619.00
2023-04-27T01:30:18.523Z,97636.00
2023-04-27T01:32:46.691Z,97633.00
2023-04-27T01:35:14.903Z,97623.00
2023-04-27T01:37:43.418Z,97634.00
2023-04-27T01:40:13.582Z,97639.00
2023-04-27T01:42:43.035Z,97627.00
2023-04-27T01:45:12.830Z,97629.00
2023-04-27T01:47:41.465Z,97634.00
2023-04-27T01:50:10.666Z,97638.00
2023-04-27T01:52:40.986Z,97638.00
2023-04-27T01:55:10.040Z,97624.00
2023-04-27T01:57:39.052Z,97634.00
2023-04-27T02:00:10.602Z,97637.00
2023-04-27T02:03:00.744Z,97625.00
2023-04-27T02:05:29.756Z,97641.00
2023-04-27T02:07:57.919Z,97638.00
2023-04-27T02:10:26.245Z,97635.00
2023-04-27T02:12:57.336Z,97643.00
2023-04-27T02:15:26.972Z,97649.00
2023-04-27T02:17:56.096Z,97628.00
2023-04-27T02:20:24.401Z,97649.00
2023-04-27T02:22:53.371Z,97637.00
2023-04-27T02:25:21.837Z,97634.00
2023-04-27T02:27:50.011Z,97643.00
2023-04-27T02:30:18.749Z,97633.00
2023-04-27T02:32:48.803Z,97634.00
2023-04-27T02:35:17.139Z,97648.00
2023-04-27T02:37:45.318Z,97651.00
2023-04-27T02:40:16.602Z,97649.00
2023-04-27T02:42:44.702Z,97640.00
2023-04-27T02:45:13.222Z,97640.00
2023-04-27T02:47:41.611Z,97636.00
2023-04-27T02:50:13.625Z,97643.00
2023-04-27T02:52:41.953Z,97644.00
2023-04-27T02:55:11.417Z,97634.00
2023-04-27T02:57:39.572Z,97649.00
2023-04-27T03:00:11.423Z,97645.00
2023-04-27T03:02:39.806Z,97645.00
2023-04-27T03:05:09.134Z,97637.00
2023-04-27T03:07:38.600Z,97651.00
2023-04-27T03:10:07.538Z,97644.00
2023-04-27T03:12:35.869Z,97652.00
2023-04-27T03:15:05.002Z,97656.00
2023-04-27T03:17:33.176Z,97635.00
2023-04-27T03:20:01.464Z,97649.00
2023-04-27T03:22:29.654Z,97658.00
2023-04-27T03:24:59.080Z,97650.00
2023-04-27T03:27:27.203Z,97656.00
2023-04-27T03:29:55.329Z,97661.00
2023-04-27T03:32:23.646Z,97660.00
2023-04-27T03:34:52.260Z,97649.00
2023-04-27T03:37:20.517Z,97655.00
2023-04-27T03:39:48.764Z,97664.00
2023-04-27T03:42:18.787Z,97664.00
2023-04-27T03:44:47.016Z,97669.00
2023-04-27T03:47:15.141Z,97670.00
2023-04-27T03:49:45.189Z,97671.00
2023-04-27T03:52:13.310Z,97670.00
2023-04-27T03:54:41.550Z,97669.00
2023-04-27T03:57:09.712Z,97676.00
2023-04-27T03:59:39.161Z,97674.00
2023-04-27T04:02:08.686Z,97677.00
2023-04-27T04:04:38.388Z,97683.00
2023-04-27T04:07:06.850Z,97680.00
2023-04-27T04:09:35.366Z,97692.00
2023-04-27T04:12:03.808Z,97685.00
2023-04-27T04:14:32.024Z,97688.00
2023-04-27T04:17:01.708Z,97689.00
2023-04-27T04:19:29.926Z,97689.00
2023-04-27T04:21:58.501Z,97692.00
2023-04-27T04:24:26.670Z,97692.00
2023-04-27T04:26:55.898Z,97682.00
2023-04-27T04:29:24.156Z,97685.00
2023-04-27T04:31:52.407Z,97683.00
2023-04-27T04:34:22.836Z,97674.00
2023-04-27T04:36:52.166Z,97669.00
2023-04-27T04:39:21.494Z,97668.00
2023-04-27T04:41:50.366Z,97669.00
2023-04-27T04:44:20.189Z,97676.00
2023-04-27T04:46:48.732Z,97678.00
2023-04-27T04:49:16.994Z,97673.00
2023-04-27T04:51:47.150Z,97686.00
2023-04-27T04:54:15.276Z,97686.00
2023-04-27T04:56:43.529Z,97680.00
2023-04-27T04:59:11.810Z,97690.00
2023-04-27T05:01:40.221Z,97677.00
2023-04-27T05:04:08.760Z,97674.00
2023-04-27T05:06:37.058Z,97684.00
2023-04-27T05:09:07.123Z,97679.00
2023-04-27T05:11:35.366Z,97682.00
2023-04-27T05:14:03.566Z,97680.00
2023-04-27T05:16:31.889Z,97690.00
2023-04-27T05:19:00.120Z,97695.00
2023-04-27T05:21:28.299Z,97689.00
2023-04-27T05:23:56.390Z,97694.00
2023-04-27T05:26:26.120Z,97695.00
2023-04-27T05:28:54.209Z,97691.00
2023-04-27T05:31:22.495Z,97704.00
2023-04-27T05:33:51.200Z,97713.00
2023-04-27T05:36:19.386Z,97711.00
2023-04-27T05:38:47.522Z,97705.00
2023-04-27T05:41:15.701Z,97699.00
2023-04-27T05:43:45.282Z,97708.00
2023-04-27T05:46:16.230Z,97702.00
2023-04-27T05:48:44.431Z,97705.00
2023-04-27T05:51:12.678Z,97706.00
2023-04-27T05:53:41.207Z,97717.00
2023-04-27T05:56:11.730Z,97711.00
2023-04-27T05:58:40.008Z,97713.00
2023-04-27T06:01:09.531Z,97714.00
2023-04-27T06:03:37.855Z,97707.00
2023-04-27T06:06:06.489Z,97718.00
2023-04-27T06:08:37.281Z,97712.00
2023-04-27T06:11:05.943Z,97720.00
2023-04-27T06:13:34.190Z,97717.00
2023-04-27T06:16:02.443Z,97726.00
2023-04-27T06:18:32.430Z,97723.00
2023-04-27T06:21:02.312Z,97724.00
2023-04-27T06:23:30.719Z,97736.00
2023-04-27T06:25:58.889Z,97738.00
2023-04-27T06:28:27.183Z,97727.00
2023-04-27T06:30:55.764Z,97726.00
2023-04-27T06:33:23.948Z,97734.00
2023-04-27T06:35:53.566Z,97736.00
2023-04-27T06:38:22.177Z,97723.00
2023-04-27T06:40:53.162Z,97717.00
2023-04-27T06:43:21.701Z,97730.00
2023-04-27T06:45:49.995Z,97742.00
2023-04-27T06:48:18.385Z,97732.00
2023-04-27T06:50:46.900Z,97746.00
2023-04-27T06:53:17.293Z,97736.00
2023-04-27T06:55:47.546Z,97740.00
2023-04-27T06:58:16.863Z,97736.00
2023-04-27T07:00:45.262Z,97739.00
2023-04-27T07:03:13.661Z,97735.00
2023-04-27T07:05:42.217Z,97744.00
2023-04-27T07:08:10.582Z,97741.00
2023-04-27T07:10:40.519Z,97740.00
2023-04-27T07:13:09.637Z,97726.00
2023-04-27T07:15:38.217Z,97723.00
2023-04-27T07:18:06.677Z,97721.00
2023-04-27T07:20:35.178Z,97711.00
2023-04-27T07:23:03.978Z,97724.00
2023-04-27T07:25:33.079Z,97719.00
2023-04-27T07:28:02.607Z,97725.00
2023-04-27T07:30:31.027Z,97727.00
2023-04-27T07:33:00.938Z,97743.00
2023-04-27T07:35:29.493Z,97729.00
2023-04-27T07:37:57.855Z,97733.00
2023-04-27T07:40:26.438Z,97730.00
2023-04-27T07:42:55.063Z,97731.00
2023-04-27T07:45:31.797Z,97737.00
2023-04-27T07:48:00.507Z,97754.00
2023-04-27T07:50:30.656Z,97738.00
2023-04-27T07:52:59.393Z,97741.00
2023-04-27T07:55:28.597Z,97745.00
2023-04-27T07:57:58.092Z,97760.00
2023-04-27T08:00:28.100Z,97759.00
2023-04-27T08:02:56.828Z,97753.00
2023-04-27T08:05:25.819Z,97769.00
2023-04-27T08:07:54.722Z,97755.00
2023-04-27T08:10:23.961Z,97760.00
2023-04-27T08:12:52.414Z,97757.00
2023-04-27T08:15:21.965Z,97770.00
2023-04-27T08:17:51.790Z,97772.00
2023-04-27T08:20:20.758Z,97768.00
2023-04-27T08:22:49.035Z,97758.00
2023-04-27T08:25:17.468Z,97753.00
2023-04-27T08:27:45.792Z,97765.00
2023-04-27T08:30:15.104Z,97760.00
2023-04-27T08:32:43.380Z,97759.00
2023-04-27T08:35:13.348Z,97746.00
2023-04-27T08:37:41.645Z,97758.00
2023-04-27T08:40:11.585Z,97741.00
2023-04-27T08:42:43.055Z,97748.00
2023-04-27T08:45:11.992Z,97753.00
2023-04-27T08:47:43.855Z,97739.00
2023-04-27T08:50:14.230Z,97757.00
2023-04-27T08:52:45.371Z,97742.00
2023-04-27T08:55:16.236Z,97746.00
2023-04-27T08:57:56.946Z,97742.00
2023-04-27T09:00:27.380Z,97739.00
2023-04-27T09:02:55.800Z,97746.00
2023-04-27T09:05:25.794Z,97740.00
2023-04-27T09:08:05.274Z,97743.00
2023-04-27T09:10:46.644Z,97739.00
2023-04-27T09:13:15.348Z,97742.00
2023-04-27T09:15:48.238Z,97746.00
2023-04-27T09:18:19.404Z,97739.00
2023-04-27T09:20:51.190Z,97734.00
2023-04-27T09:23:29.500Z,97735.00
2023-04-27T09:25:58.921Z,97738.00
2023-04-27T09:28:30.839Z,97724.00
2023-04-27T09:31:00.990Z,97721.00
2023-04-27T09:33:32.172Z,97719.00
2023-04-27T09:36:03.424Z,97713.00
2023-04-27T09:38:32.915Z,97709.00
2023-04-27T09:41:04.483Z,97699.00
2023-04-27T09:43:33.249Z,97708.00
2023-04-27T09:46:01.693Z,97694.00
2023-04-27T09:48:29.883Z,97700.00
2023-04-27T09:50:58.150Z,97710.00
2023-04-27T09:53:37.834Z,97702.00
2023-04-27T09:56:28.944Z,97702.00
2023-04-27T09:59:21.604Z,97697.00
2023-04-27T10:01:56.712Z,97685.00
2023-04-27T10:04:56.335Z,97696.00
2023-04-27T10:07:28.156Z,97695.00
2023-04-27T10:10:04.036Z,97690.00
2023-04-27T10:12:37.228Z,97692.00
2023-04-27T10:15:15.395Z,97682.00
2023-04-27T10:17:53.042Z,97691.00
2023-04-27T10:20:31.815Z,97703.00
2023-04-27T10:23:01.134Z,97677.00
2023-04-27T10:25:38.951Z,97695.00
2023-04-27T10:28:08.076Z,97690.00
2023-04-27T10:30:38.875Z,97695.00
2023-04-27T10:33:09.442Z,97693.00
2023-04-27T10:35:42.820Z,97694.00
2023-04-27T10:38:17.399Z,97694.00
2023-04-27T10:40:57.661Z,97690.00
2023-04-27T10:43:28.021Z,97683.00
2023-04-27T10:45:56.893Z,97685.00
2023-04-27T10:48:25.014Z,97684.00
2023-04-27T10:50:53.234Z,97686.00
2023-04-27T10:53:25.700Z,97678.00
2023-04-27T10:55:58.955Z,97681.00
2023-04-27T10:58:37.754Z,97680.00
2023-04-27T11:01:38.531Z,97687.00
2023-04-27T11:04:06.934Z,97675.00
2023-04-27T11:06:45.736Z,97667.00
2023-04-27T11:09:14.750Z,97679.00
2023-04-27T11:11:47.723Z,97672.00
2023-04-27T11:14:21.552Z,97683.00
2023-04-27T11:16:50.591Z,97682.00
2023-04-27T11:19:18.735Z,97675.00
2023-04-27T11:21:47.447Z,97674.00
2023-04-27T11:24:15.771Z,97670.00
2023-04-27T11:26:44.062Z,97673.00
2023-04-27T11:29:15.506Z,97679.00
2023-04-27T11:31:48.559Z,97661.00
2023-04-27T11:34:19.336Z,97673.00
2023-04-27T11:37:10.678Z,97675.00
2023-04-27T11:39:46.819Z,97676.00
2023-04-27T11:42:20.602Z,97674.00
2023-04-27T11:44:57.925Z,97680.00
2023-04-27T11:47:29.266Z,97681.00
2023-04-27T11:49:59.555Z,97680.00
2023-04-27T11:52:30.458Z,97674.00
2023-04-27T11:54:59.124Z,97676.00
2023-04-27T11:57:28.993Z,97676.00
2023-04-27T12:00:01.454Z,97677.00
2023-04-27T12:02:31.739Z,97669.00
2023-04-27T12:05:01.046Z,97671.00
2023-04-27T12:07:29.482Z,97684.00
2023-04-27T12:09:59.558Z,97691.00
2023-04-27T12:12:29.305Z,97679.00
2023-04-27T12:14:58.899Z,97678.00
2023-04-27T12:17:27.141Z,97680.00
2023-04-27T12:19:55.365Z,97666.00
2023-04-27T12:22:23.756Z,97669.00
2023-04-27T12:24:52.400Z,97667.00
2023-04-27T12:27:20.594Z,97663.00
2023-04-27T12:29:48.800Z,97656.00
2023-04-27T12:32:18.359Z,97667.00
2023-04-27T12:34:47.094Z,97671.00
2023-04-27T12:37:15.249Z,97663.00
2023-04-27T12:39:43.428Z,97663.00
2023-04-27T12:42:11.693Z,97657.00
2023-04-27T12:44:39.900Z,97654.00
2023-04-27T12:47:08.196Z,97659.00
2023-04-27T12:49:37.844Z,97662.00
2023-04-27T12:52:06.367Z,97656.00
2023-04-27T12:54:34.559Z,97659.00
2023-04-27T12:57:06.651Z,97651.00
2023-04-27T12:59:35.112Z,97653.00
2023-04-27T13:02:05.972Z,97658.00
2023-04-27T13:04:34.785Z,97659.00
2023-04-27T13:07:04.533Z,97659.00
2023-04-27T13:09:32.932Z,97647.00
2023-04-27T13:12:01.887Z,97655.00
2023-04-27T13:14:30.341Z,97650.00
2023-04-27T13:16:58.587Z,97645.00
2023-04-27T13:19:26.801Z,97650.00
2023-04-27T13:21:55.133Z,97659.00
2023-04-27T13:24:25.901Z,97644.00
2023-04-27T13:26:54.151Z,97656.00
2023-04-27T13:29:24.473Z,97644.00
2023-04-27T13:31:52.970Z,97635.00
2023-04-27T13:34:21.272Z,97636.00
2023-04-27T13:36:49.673Z,97646.00
2023-04-27T13:39:18.012Z,97641.00
2023-04-27T13:41:47.621Z,97633.00
2023-04-27T13:44:16.379Z,97632.00
2023-04-27T13:46:44.866Z,97636.00
2023-04-27T13:49:16.094Z,97623.00
2023-04-27T13:51:44.259Z,97622.00
2023-04-27T13:54:12.770Z,97622.00
2023-04-27T13:56:41.165Z,97613.00
2023-04-27T13:59:12.034Z,97617.00
2023-04-27T14:01:40.336Z,97627.00
2023-04-27T14:04:08.703Z,97619.00
2023-04-27T14:06:37.240Z,97624.00
2023-04-27T14:09:05.741Z,97613.00
2023-04-27T14:11:39.625Z,97608.00
2023-04-27T14:14:14.874Z,97597.00
2023-04-27T14:16:43.080Z,97600.00
2023-04-27T14:19:15.031Z,97606.00
2023-04-27T14:21:43.660Z,97605.00
2023-04-27T14:24:11.939Z,97604.00
2023-04-27T14:26:43.819Z,97590.00
2023-04-27T14:29:12.294Z,97599.00
2023-04-27T14:31:42.420Z,97611.00
2023-04-27T14:34:10.897Z,97598.00
2023-04-27T14:36:39.351Z,97588.00
2023-04-27T14:39:09.340Z,97597.00
2023-04-27T14:41:38.232Z,97603.00
2023-04-27T14:44:08.935Z,97596.00
2023-04-27T14:46:38.120Z,97601.00
2023-04-27T14:49:07.699Z,97609.00
2023-04-27T14:51:35.956Z,97611.00
2023-04-27T14:54:04.989Z,97605.00
2023-04-27T14:56:33.677Z,97613.00
2023-04-27T14:59:01.936Z,97608.00
2023-04-27T15:01:30.296Z,97609.00
2023-04-27T15:03:58.730Z,97606.00
2023-04-27T15:06:30.219Z,97605.00
2023-04-27T15:08:58.530Z,97614.00
2023-04-27T15:11:26.815Z,97615.00
2023-04-27T15:13:54.956Z,97615.00
2023-04-27T15:16:23.156Z,97606.00
2023-04-27T15:18:51.417Z,97614.00
2023-04-27T15:21:19.618Z,97612.00
2023-04-27T15:23:49.180Z,97600.00
2023-04-27T15:26:17.343Z,97601.00
2023-04-27T15:28:45.604Z,97603.00
2023-04-27T15:31:14.032Z,97607.00
2023-04-27T15:33:42.222Z,97599.00
2023-04-27T15:36:11.178Z,97598.00
2023-04-27T15:38:39.521Z,97589.00
2023-04-27T15:41:09.216Z,97597.00
2023-04-27T15:43:37.502Z,97586.00
2023-04-27T15:46:05.976Z,97578.00
2023-04-27T15:48:34.313Z,97577.00
2023-04-27T15:51:02.732Z,97586.00
2023-04-27T15:53:31.905Z,97587.00
2023-04-27T15:56:00.126Z,97575.00
2023-04-27T15:58:29.645Z,97577.00
2023-04-27T16:00:59.929Z,97581.00
2023-04-27T16:03:28.248Z,97574.00
2023-04-27T16:05:56.577Z,97572.00
2023-04-27T16:08:26.750Z,97579.00
2023-04-27T16:10:55.474Z,97577.00
2023-04-27T16:13:24.714Z,97576.00
2023-04-27T16:15:54.238Z,97580.00
2023-04-27T16:18:22.490Z,97573.00
2023-04-27T16:20:50.658Z,97569.00
2023-04-27T16:23:18.801Z,97581.00
2023-04-27T16:25:46.935Z,97578.00
2023-04-27T16:28:16.557Z,97564.00
2023-04-27T16:30:44.868Z,97562.00
2023-04-27T16:33:16.207Z,97561.00
2023-04-27T16:35:44.436Z,97553.00
2023-04-27T16:38:12.543Z,97559.00
2023-04-27T16:40:40.790Z,97555.00
2023-04-27T16:43:09.162Z,97561.00
2023-04-27T16:45:38.494Z,97562.00
2023-04-27T16:48:07.537Z,97560.00
2023-04-27T16:50:37.533Z,97569.00
2023-04-27T16:53:06.946Z,97567.00
2023-04-27T16:55:35.628Z,97569.00
2023-04-27T16:58:03.959Z,97563.00
2023-04-27T17:00:32.379Z,97561.00
2023-04-27T17:03:01.056Z,97558.00
2023-04-27T17:05:29.496Z,97571.00
2023-04-27T17:07:59.068Z,97564.00
2023-04-27T17:10:27.736Z,97556.00
2023-04-27T17:12:56.303Z,97549.00
2023-04-27T17:15:25.920Z,97541.00
2023-04-27T17:17:55.499Z,97546.00
2023-04-27T17:20:23.707Z,97543.00
2023-04-27T17:22:51.923Z,97537.00
2023-04-27T17:25:21.975Z,97534.00
2023-04-27T17:27:50.563Z,97541.00
2023-04-27T17:30:18.738Z,97546.00
2023-04-27T17:32:46.918Z,97544.00
2023-04-27T17:35:15.058Z,97549.00
2023-04-27T17:37:43.448Z,97541.00
2023-04-27T17:40:13.895Z,97553.00
2023-04-27T17:42:43.802Z,97540.00
2023-04-27T17:45:12.574Z,97546.00
2023-04-27T17:47:40.823Z,97546.00
2023-04-27T17:50:10.769Z,97546.00
2023-04-27T17:52:39.691Z,97543.00
2023-04-27T17:55:08.700Z,97540.00
2023-04-27T17:57:36.855Z,97536.00
2023-04-27T18:00:10.137Z,97537.00
2023-04-27T18:02:41.625Z,97535.00
2023-04-27T18:05:10.535Z,97536.00
2023-04-27T18:07:38.952Z,97534.00
2023-04-27T18:10:09.101Z,97539.00
2023-04-27T18:12:37.289Z,97536.00
2023-04-27T18:15:09.879Z,97532.00
2023-04-27T18:17:38.430Z,97543.00
2023-04-27T18:20:10.159Z,97534.00
2023-04-27T18:22:40.173Z,97542.00
2023-04-27T18:25:10.699Z,97547.00
2023-04-27T18:27:38.957Z,97546.00
2023-04-27T18:30:09.947Z,97545.00
2023-04-27T18:32:38.709Z,97541.00
2023-04-27T18:35:08.188Z,97557.00
2023-04-27T18:37:36.601Z,97546.00
2023-04-27T18:40:06.066Z,97548.00
2023-04-27T18:42:34.453Z,97552.00
2023-04-27T18:45:02.733Z,97565.00
2023-04-27T18:47:32.337Z,97567.00
2023-04-27T18:50:00.599Z,97563.00
2023-04-27T18:52:28.955Z,97561.00
2023-04-27T18:54:57.223Z,97572.00
2023-04-27T18:57:26.596Z,97569.00
2023-04-27T18:59:54.846Z,97572.00
2023-04-27T19:02:25.087Z,97570.00
2023-04-27T19:05:11.427Z,97576.00
2023-04-27T19:07:41.005Z,97554.00
2023-04-27T19:10:10.958Z,97561.00
2023-04-27T19:12:39.222Z,97564.00
2023-04-27T19:15:08.621Z,97553.00
2023-04-27T19:17:36.852Z,97564.00
2023-04-27T19:20:08.146Z,97559.00
2023-04-27T19:22:36.770Z,97570.00
2023-04-27T19:25:05.991Z,97565.00
2023-04-27T19:27:34.365Z,97559.00
2023-04-27T19:30:04.045Z,97561.00
2023-04-27T19:32:34.574Z,97568.00
2023-04-27T19:35:03.265Z,97560.00
2023-04-27T19:37:33.138Z,97559.00
2023-04-27T19:40:01.498Z,97560.00
2023-04-27T19:42:30.237Z,97559.00
2023-04-27T19:44:58.547Z,97557.00
2023-04-27T19:47:26.864Z,97569.00
2023-04-27T19:49:55.180Z,97564.00
2023-04-27T19:52:23.342Z,97557.00
2023-04-27T19:54:53.950Z,97562.00
2023-04-27T19:57:22.631Z,97564.00
2023-04-27T19:59:50.851Z,97565.00
2023-04-27T20:02:19.065Z,97574.00
2023-04-27T20:04:47.552Z,97572.00
2023-04-27T20:07:16.131Z,97567.00
2023-04-27T20:09:44.443Z,97566.00
2023-04-27T20:12:34.929Z,97573.00
2023-04-27T20:15:02.170Z,97558.00
2023-04-27T20:17:31.272Z,97562.00
2023-04-27T20:19:59.549Z,97563.00
2023-04-27T20:22:27.752Z,97562.00
2023-04-27T20:24:58.904Z,97572.00
2023-04-27T20:27:28.406Z,97566.00
2023-04-27T20:29:56.644Z,97558.00
2023-04-27T20:32:24.800Z,97556.00
2023-04-27T20:34:53.067Z,97561.00
2023-04-27T20:37:21.275Z,97551.00
2023-04-27T20:39:49.614Z,97556.00
2023-04-27T20:42:17.732Z,97550.00
2023-04-27T20:44:48.444Z,97556.00
2023-04-27T20:47:16.667Z,97557.00
2023-04-27T20:49:44.797Z,97551.00
2023-04-27T20:52:12.997Z,97554.00
2023-04-27T20:54:41.725Z,97550.00
2023-04-27T20:57:13.708Z,97543.00
2023-04-27T20:59:42.180Z,97562.00
2023-04-27T21:02:15.106Z,97549.00
2023-04-27T21:04:43.440Z,97551.00
2023-04-27T21:07:11.569Z,97541.00
2023-04-27T21:09:39.797Z,97530.00
2023-04-27T21:12:08.671Z,97545.00
2023-04-27T21:14:37.421Z,97549.00
2023-04-27T21:17:05.888Z,97554.00
2023-04-27T21:19:35.475Z,97546.00
2023-04-27T21:22:03.837Z,97542.00
2023-04-27T21:24:32.111Z,97533.00
2023-04-27T21:27:00.350Z,97535.00
2023-04-27T21:29:28.852Z,97541.00
2023-04-27T21:31:56.939Z,97542.00
2023-04-27T21:34:25.088Z,97540.00
2023-04-27T21:36:54.812Z,97533.00
2023-04-27T21:39:22.944Z,97529.00
2023-04-27T21:41:51.177Z,97533.00
2023-04-27T21:44:19.360Z,97540.00
2023-04-27T21:46:47.655Z,97538.00
2023-04-27T21:49:15.932Z,97544.00
2023-04-27T21:51:44.082Z,97535.00
2023-04-27T21:54:13.862Z,97528.00
2023-04-27T21:56:42.574Z,97521.00
2023-04-27T21:59:10.707Z,97523.00
2023-04-27T22:01:39.067Z,97518.00
2023-04-27T22:04:07.440Z,97516.00
2023-04-27T22:06:35.740Z,97515.00
2023-04-27T22:09:05.832Z,97512.00
2023-04-27T22:11:36.685Z,97511.00
2023-04-27T22:14:04.940Z,97516.00
2023-04-27T22:16:33.156Z,97513.00
2023-04-27T22:19:01.366Z,97513.00
2023-04-27T22:21:29.513Z,97520.00
2023-04-27T22:23:57.615Z,97503.00
2023-04-27T22:26:26.036Z,97495.00
2023-04-27T22:28:55.484Z,97495.00
2023-04-27T22:31:23.729Z,97502.00
2023-04-27T22:33:52.052Z,97496.00
2023-04-27T22:36:20.416Z,97492.00
2023-04-27T22:38:48.623Z,97491.00
2023-04-27T22:41:17.007Z,97496.00
2023-04-27T22:43:45.080Z,97498.00
2023-04-27T22:46:14.686Z,97516.00
2023-04-27T22:48:43.583Z,97494.00
2023-04-27T22:51:12.118Z,97489.00
2023-04-27T22:53:40.470Z,97481.00
2023-04-27T22:56:09.030Z,97482.00
2023-04-27T22:58:37.253Z,97492.00
2023-04-27T23:01:06.028Z,97490.00
2023-04-27T23:03:35.630Z,97490.00
2023-04-27T23:06:05.029Z,97495.00
2023-04-27T23:08:33.183Z,97491.00
2023-04-27T23:11:02.784Z,97492.00
2023-04-27T23:13:31.465Z,97490.00
2023-04-27T23:15:59.584Z,97479.00
2023-04-27T23:18:27.811Z,97483.00
2023-04-27T23:20:57.328Z,97487.00
2023-04-27T23:23:25.512Z,97481.00
2023-04-27T23:25:53.636Z,97485.00
2023-04-27T23:28:22.414Z,97495.00
2023-04-27T23:30:55.563Z,97495.00
2023-04-27T23:33:27.525Z,97483.00
2023-04-27T23:35:57.399Z,97493.00
2023-04-27T23:38:25.629Z,97481.00
2023-04-27T23:40:53.961Z,97495.00
2023-04-27T23:43:22.401Z,97490.00
2023-04-27T23:45:51.703Z,97485.00
2023-04-27T23:48:20.219Z,97492.00
2023-04-27T23:50:48.430Z,97476.00
2023-04-27T23:53:18.154Z,97481.00
2023-04-27T23:55:46.581Z,97474.00
2023-04-27T23:58:14.963Z,97462.00
